createdAt,value
2023-01-28T00:01:45.377Z,3.48
2023-01-28T00:04:12.021Z,3.03
2023-01-28T00:06:39.221Z,0.28
2023-01-28T00:09:05.829Z,3.46
2023-01-28T00:11:32.442Z,3.11
2023-01-28T00:13:59.582Z,3.41
2023-01-28T00:16:27.453Z,3.31
2023-01-28T00:18:54.686Z,3.35
2023-01-28T00:21:21.425Z,3.43
2023-01-28T00:23:53.000Z,3.35
2023-01-28T00:26:19.981Z,3.26
2023-01-28T00:28:46.632Z,3.41
2023-01-28T00:31:17.571Z,3.39
2023-01-28T00:33:45.833Z,3.38
2023-01-28T00:36:13.682Z,3.37
2023-01-28T00:38:40.363Z,3.34
2023-01-28T00:41:08.415Z,3.31
2023-01-28T00:43:35.392Z,3.29
2023-01-28T00:46:02.040Z,3.38
2023-01-28T00:48:28.644Z,3.45
2023-01-28T00:50:55.278Z,3.18
2023-01-28T00:53:21.932Z,3.28
2023-01-28T00:55:48.604Z,3.25
2023-01-28T00:58:15.173Z,3.24
2023-01-28T01:00:41.819Z,3.17
2023-01-28T01:03:08.404Z,3.17
2023-01-28T01:05:35.069Z,3.05
2023-01-28T01:08:01.834Z,3.10
2023-01-28T01:10:28.474Z,3.18
2023-01-28T01:12:58.119Z,3.19
2023-01-28T01:15:24.750Z,3.00
2023-01-28T01:17:51.482Z,2.56
2023-01-28T01:20:21.096Z,3.08
2023-01-28T01:22:47.824Z,3.07
2023-01-28T01:25:16.778Z,3.11
2023-01-28T01:27:45.974Z,3.00
2023-01-28T01:30:12.942Z,3.14
2023-01-28T01:32:39.585Z,3.11
2023-01-28T01:35:08.208Z,3.01
2023-01-28T01:37:36.318Z,3.06
2023-01-28T01:40:05.087Z,2.67
2023-01-28T01:42:34.941Z,3.25
2023-01-28T01:45:06.671Z,3.23
2023-01-28T01:47:40.868Z,3.21
2023-01-28T01:50:32.874Z,3.20
2023-01-28T01:53:08.349Z,3.11
2023-01-28T01:55:38.208Z,3.06
2023-01-28T01:58:12.020Z,3.15
2023-01-28T02:00:40.429Z,3.08
2023-01-28T02:03:07.128Z,3.03
2023-01-28T02:05:33.769Z,2.92
2023-01-28T02:08:20.677Z,2.19
2023-01-28T02:10:52.011Z,2.98
2023-01-28T02:13:20.694Z,3.07
2023-01-28T02:15:49.124Z,3.16
2023-01-28T02:18:15.978Z,2.83
2023-01-28T02:21:04.255Z,3.20
2023-01-28T02:24:08.619Z,3.21
2023-01-28T02:27:02.706Z,3.16
2023-01-28T02:29:43.785Z,3.15
2023-01-28T02:32:13.857Z,3.24
2023-01-28T02:34:45.091Z,2.77
2023-01-28T02:37:23.098Z,3.01
2023-01-28T02:39:57.361Z,2.89
2023-01-28T02:42:30.683Z,2.98
2023-01-28T02:44:57.495Z,2.89
2023-01-28T02:47:43.025Z,2.69
2023-01-28T02:50:15.842Z,3.05
2023-01-28T02:53:44.289Z,2.91
2023-01-28T02:56:24.380Z,2.77
2023-01-28T02:59:22.915Z,2.71
2023-01-28T03:01:58.459Z,2.89
2023-01-28T03:04:30.835Z,2.83
2023-01-28T03:07:04.345Z,2.83
2023-01-28T03:09:32.678Z,2.89
2023-01-28T03:12:24.224Z,2.83
2023-01-28T03:15:14.367Z,2.88
2023-01-28T03:18:08.631Z,2.86
2023-01-28T03:21:10.154Z,3.15
2023-01-28T03:24:24.635Z,3.16
2023-01-28T03:27:42.080Z,3.24
2023-01-28T03:30:52.593Z,2.79
2023-01-28T03:33:38.363Z,2.89
2023-01-28T03:36:26.203Z,3.26
2023-01-28T03:38:52.958Z,3.35
2023-01-28T03:41:26.818Z,3.30
2023-01-28T03:43:53.725Z,3.55
2023-01-28T03:46:20.580Z,3.40
2023-01-28T03:48:47.351Z,3.34
2023-01-28T03:51:13.956Z,2.85
2023-01-28T03:53:40.583Z,3.40
2023-01-28T03:56:07.549Z,3.42
2023-01-28T03:58:52.827Z,3.13
2023-01-28T04:01:20.242Z,3.40
2023-01-28T04:03:46.843Z,2.97
2023-01-28T04:06:13.750Z,3.44
2023-01-28T04:08:40.299Z,2.55
2023-01-28T04:11:16.025Z,3.34
2023-01-28T04:13:43.488Z,3.52
2023-01-28T04:16:14.695Z,3.51
2023-01-28T04:18:41.391Z,3.43
2023-01-28T04:21:08.033Z,3.38
2023-01-28T04:23:34.839Z,3.42
2023-01-28T04:26:01.451Z,2.86
2023-01-28T04:28:28.073Z,2.76
2023-01-28T04:30:54.645Z,3.21
2023-01-28T04:33:21.274Z,3.24
2023-01-28T04:35:47.919Z,3.05
2023-01-28T04:38:14.493Z,3.08
2023-01-28T04:40:41.067Z,3.09
2023-01-28T04:43:07.681Z,3.23
2023-01-28T04:45:34.287Z,1.69
2023-01-28T04:48:00.973Z,3.08
2023-01-28T04:50:27.585Z,3.13
2023-01-28T04:52:54.157Z,3.11
2023-01-28T04:55:20.733Z,3.08
2023-01-28T04:57:48.749Z,3.03
2023-01-28T05:00:15.642Z,3.17
2023-01-28T05:02:42.196Z,3.09
2023-01-28T05:05:09.135Z,2.96
2023-01-28T05:07:36.495Z,2.49
2023-01-28T05:10:03.271Z,2.74
2023-01-28T05:12:32.908Z,2.81
2023-01-28T05:15:02.635Z,2.75
2023-01-28T05:17:29.383Z,2.72
2023-01-28T05:19:56.014Z,2.68
2023-01-28T05:22:22.787Z,2.53
2023-01-28T05:24:49.402Z,2.56
2023-01-28T05:27:15.984Z,2.14
2023-01-28T05:29:42.599Z,2.59
2023-01-28T05:32:09.623Z,2.21
2023-01-28T05:34:36.349Z,2.47
2023-01-28T05:37:03.064Z,2.40
2023-01-28T05:39:29.737Z,2.35
2023-01-28T05:41:56.367Z,2.54
2023-01-28T05:44:22.942Z,2.49
2023-01-28T05:46:49.563Z,2.47
2023-01-28T05:49:16.747Z,2.53
2023-01-28T05:51:43.488Z,2.45
2023-01-28T05:54:10.322Z,2.47
2023-01-28T05:56:37.012Z,2.59
2023-01-28T05:59:04.402Z,2.59
2023-01-28T06:01:31.186Z,2.40
2023-01-28T06:03:57.947Z,2.63
2023-01-28T06:06:24.715Z,2.63
2023-01-28T06:08:51.250Z,2.24
2023-01-28T06:11:19.044Z,2.74
2023-01-28T06:13:46.467Z,2.82
2023-01-28T06:16:13.159Z,1.90
2023-01-28T06:18:41.395Z,2.66
2023-01-28T06:21:08.449Z,3.06
2023-01-28T06:23:35.140Z,3.02
2023-01-28T06:26:01.765Z,2.90
2023-01-28T06:28:28.444Z,3.44
2023-01-28T06:30:55.105Z,3.53
2023-01-28T06:33:22.632Z,3.17
2023-01-28T06:35:49.244Z,3.62
2023-01-28T06:38:15.903Z,3.71
2023-01-28T06:40:42.513Z,3.50
2023-01-28T06:43:09.128Z,3.73
2023-01-28T06:45:35.735Z,3.01
2023-01-28T06:48:03.950Z,3.47
2023-01-28T06:50:30.803Z,2.08
2023-01-28T06:52:57.409Z,2.82
2023-01-28T06:55:24.074Z,4.01
2023-01-28T06:57:50.838Z,4.18
2023-01-28T07:00:18.595Z,4.32
2023-01-28T07:02:45.419Z,4.40
2023-01-28T07:05:12.005Z,4.73
2023-01-28T07:07:41.438Z,4.68
2023-01-28T07:10:09.144Z,4.17
2023-01-28T07:12:35.731Z,4.87
2023-01-28T07:15:02.436Z,4.89
2023-01-28T07:17:29.109Z,4.52
2023-01-28T07:19:55.672Z,4.85
2023-01-28T07:22:22.267Z,5.06
2023-01-28T07:24:48.882Z,5.13
2023-01-28T07:27:15.486Z,5.06
2023-01-28T07:29:42.100Z,5.15
2023-01-28T07:32:08.742Z,5.26
2023-01-28T07:34:37.623Z,5.20
2023-01-28T07:37:04.267Z,5.23
2023-01-28T07:39:30.964Z,5.18
2023-01-28T07:41:57.564Z,4.87
2023-01-28T07:44:24.118Z,5.41
2023-01-28T07:46:50.794Z,5.47
2023-01-28T07:49:17.394Z,5.51
2023-01-28T07:51:46.518Z,5.52
2023-01-28T07:54:13.466Z,5.81
2023-01-28T07:56:40.057Z,6.11
2023-01-28T07:59:06.599Z,5.84
2023-01-28T08:01:33.270Z,6.45
2023-01-28T08:03:59.977Z,6.47
2023-01-28T08:06:28.782Z,6.75
2023-01-28T08:08:55.675Z,7.07
2023-01-28T08:11:23.291Z,7.04
2023-01-28T08:13:50.044Z,7.44
2023-01-28T08:16:16.783Z,7.63
2023-01-28T08:18:43.404Z,7.96
2023-01-28T08:21:09.977Z,7.38
2023-01-28T08:23:36.626Z,8.23
2023-01-28T08:26:03.398Z,8.14
2023-01-28T08:28:30.581Z,7.58
2023-01-28T08:31:00.132Z,7.73
2023-01-28T08:33:27.086Z,8.07
2023-01-28T08:35:53.963Z,8.45
2023-01-28T08:38:20.963Z,8.27
2023-01-28T08:40:48.159Z,8.07
2023-01-28T08:43:14.699Z,8.13
2023-01-28T08:45:41.622Z,8.40
2023-01-28T08:48:14.914Z,8.28
2023-01-28T08:50:41.745Z,8.52
2023-01-28T08:53:12.405Z,8.37
2023-01-28T08:55:39.425Z,8.48
2023-01-28T08:58:08.350Z,8.60
2023-01-28T09:00:35.943Z,8.50
2023-01-28T09:03:05.539Z,6.89
2023-01-28T09:05:34.099Z,9.06
2023-01-28T09:08:09.779Z,9.29
2023-01-28T09:10:39.619Z,9.52
2023-01-28T09:13:08.547Z,9.01
2023-01-28T09:15:35.853Z,9.71
2023-01-28T09:18:02.487Z,9.56
2023-01-28T09:20:29.116Z,8.56
2023-01-28T09:22:55.703Z,9.47
2023-01-28T09:25:22.316Z,9.72
2023-01-28T09:27:48.992Z,9.13
2023-01-28T09:30:16.329Z,9.07
2023-01-28T09:32:43.612Z,7.15
2023-01-28T09:35:10.502Z,8.98
2023-01-28T09:37:37.156Z,9.50
2023-01-28T09:40:04.465Z,9.42
2023-01-28T09:42:56.390Z,9.33
2023-01-28T09:45:43.487Z,9.18
2023-01-28T09:48:21.704Z,8.85
2023-01-28T09:50:53.303Z,9.67
2023-01-28T09:53:24.868Z,9.15
2023-01-28T09:56:02.123Z,9.35
2023-01-28T09:58:28.886Z,8.97
2023-01-28T10:01:30.794Z,8.86
2023-01-28T10:04:09.610Z,8.22
2023-01-28T10:07:02.528Z,8.05
2023-01-28T10:09:48.603Z,7.93
2023-01-28T10:12:21.055Z,8.36
2023-01-28T10:14:53.733Z,8.07
2023-01-28T10:17:20.411Z,7.61
2023-01-28T10:19:57.425Z,6.95
2023-01-28T10:22:32.470Z,7.56
2023-01-28T10:25:06.853Z,7.47
2023-01-28T10:27:36.255Z,7.89
2023-01-28T10:30:25.646Z,8.09
2023-01-28T10:33:05.691Z,8.14
2023-01-28T10:35:38.818Z,8.53
2023-01-28T10:38:10.455Z,7.94
2023-01-28T10:40:37.082Z,7.41
2023-01-28T10:43:03.783Z,7.61
2023-01-28T10:45:37.420Z,7.67
2023-01-28T10:48:22.595Z,7.13
2023-01-28T10:50:53.809Z,7.41
2023-01-28T10:53:20.413Z,6.87
2023-01-28T10:55:49.688Z,7.07
2023-01-28T10:58:25.468Z,6.68
2023-01-28T11:00:59.702Z,6.53
2023-01-28T11:03:34.818Z,6.96
2023-01-28T11:06:02.199Z,6.62
2023-01-28T11:08:30.510Z,6.27
2023-01-28T11:10:57.817Z,6.67
2023-01-28T11:13:27.595Z,6.65
2023-01-28T11:16:06.460Z,5.99
2023-01-28T11:18:40.614Z,6.69
2023-01-28T11:21:18.615Z,6.32
2023-01-28T11:23:59.475Z,6.49
2023-01-28T11:26:39.127Z,5.90
2023-01-28T11:29:06.924Z,6.21
2023-01-28T11:31:43.425Z,6.43
2023-01-28T11:34:15.872Z,6.46
2023-01-28T11:36:51.169Z,6.43
2023-01-28T11:39:28.604Z,5.80
2023-01-28T11:42:03.956Z,6.11
2023-01-28T11:44:30.711Z,6.06
2023-01-28T11:47:03.386Z,6.66
2023-01-28T11:50:08.265Z,6.51
2023-01-28T11:53:05.927Z,6.29
2023-01-28T11:55:40.512Z,6.40
2023-01-28T11:58:15.835Z,6.29
2023-01-28T12:00:54.606Z,6.42
2023-01-28T12:03:51.972Z,6.92
2023-01-28T12:06:45.499Z,7.05
2023-01-28T12:09:18.030Z,6.66
2023-01-28T12:12:11.546Z,6.59
2023-01-28T12:15:25.650Z,5.64
2023-01-28T12:18:31.556Z,6.30
2023-01-28T12:21:10.862Z,6.52
2023-01-28T12:23:40.541Z,6.57
2023-01-28T12:26:16.850Z,6.62
2023-01-28T12:28:56.183Z,6.69
2023-01-28T12:31:56.084Z,6.37
2023-01-28T12:34:28.650Z,6.27
2023-01-28T12:37:01.320Z,6.19
2023-01-28T12:39:40.071Z,6.23
2023-01-28T12:42:32.427Z,6.22
2023-01-28T12:45:16.626Z,6.04
2023-01-28T12:47:51.480Z,5.37
2023-01-28T12:50:22.973Z,5.82
2023-01-28T12:52:58.283Z,6.07
2023-01-28T12:55:43.555Z,5.93
2023-01-28T12:58:19.984Z,6.14
2023-01-28T13:00:51.682Z,4.92
2023-01-28T13:03:31.492Z,5.97
2023-01-28T13:06:02.761Z,6.02
2023-01-28T13:08:30.113Z,5.66
2023-01-28T13:11:02.931Z,5.34
2023-01-28T13:13:31.837Z,5.65
2023-01-28T13:15:59.779Z,5.67
2023-01-28T13:18:47.717Z,5.62
2023-01-28T13:21:27.915Z,5.68
2023-01-28T13:24:07.476Z,5.71
2023-01-28T13:26:46.639Z,5.31
2023-01-28T13:29:21.973Z,5.74
2023-01-28T13:31:52.880Z,5.86
2023-01-28T13:34:43.646Z,5.69
2023-01-28T13:37:30.566Z,5.59
2023-01-28T13:40:26.695Z,5.34
2023-01-28T13:43:01.241Z,5.48
2023-01-28T13:45:28.616Z,5.23
2023-01-28T13:48:01.397Z,5.25
2023-01-28T13:50:37.973Z,5.30
2023-01-28T13:53:19.240Z,5.33
2023-01-28T13:55:48.064Z,4.76
2023-01-28T13:58:36.306Z,5.29
2023-01-28T14:01:02.931Z,5.35
2023-01-28T14:03:57.245Z,5.37
2023-01-28T14:06:54.916Z,5.19
2023-01-28T14:09:44.561Z,5.17
2023-01-28T14:12:16.930Z,5.05
2023-01-28T14:14:58.514Z,5.02
2023-01-28T14:17:34.634Z,5.11
2023-01-28T14:20:02.001Z,5.16
2023-01-28T14:22:28.667Z,4.76
2023-01-28T14:25:00.181Z,5.10
2023-01-28T14:27:37.827Z,5.27
2023-01-28T14:30:19.404Z,5.26
2023-01-28T14:32:52.611Z,4.69
2023-01-28T14:35:32.822Z,5.26
2023-01-28T14:38:06.763Z,4.80
2023-01-28T14:40:37.960Z,4.72
2023-01-28T14:43:08.011Z,5.18
2023-01-28T14:45:57.222Z,5.33
2023-01-28T14:48:28.577Z,1.73
2023-01-28T14:51:09.999Z,5.35
2023-01-28T14:54:01.422Z,5.36
2023-01-28T14:56:46.910Z,5.35
2023-01-28T14:59:19.079Z,5.35
2023-01-28T15:01:47.660Z,5.28
2023-01-28T15:04:34.661Z,5.35
2023-01-28T15:07:21.174Z,5.39
2023-01-28T15:09:59.294Z,5.44
2023-01-28T15:12:26.105Z,5.33
2023-01-28T15:14:52.741Z,5.49
2023-01-28T15:17:27.476Z,5.05
2023-01-28T15:19:57.177Z,5.07
2023-01-28T15:22:28.678Z,5.25
2023-01-28T15:24:56.442Z,5.66
2023-01-28T15:27:29.561Z,5.04
2023-01-28T15:29:59.295Z,4.94
2023-01-28T15:32:31.266Z,5.30
2023-01-28T15:35:01.261Z,4.74
2023-01-28T15:37:27.958Z,5.21
2023-01-28T15:40:06.286Z,5.13
2023-01-28T15:42:33.476Z,4.81
2023-01-28T15:45:00.588Z,4.90
2023-01-28T15:47:35.467Z,4.82
2023-01-28T15:50:07.254Z,4.57
2023-01-28T15:52:42.361Z,4.68
2023-01-28T15:55:30.568Z,4.69
2023-01-28T15:57:57.374Z,4.54
2023-01-28T16:00:25.728Z,4.58
2023-01-28T16:02:55.289Z,4.53
2023-01-28T16:05:25.482Z,4.50
2023-01-28T16:07:52.431Z,4.29
2023-01-28T16:10:25.806Z,4.49
2023-01-28T16:12:55.852Z,4.55
2023-01-28T16:15:22.837Z,4.54
2023-01-28T16:17:52.155Z,4.55
2023-01-28T16:20:30.145Z,4.58
2023-01-28T16:23:04.357Z,4.49
2023-01-28T16:25:33.836Z,4.43
2023-01-28T16:28:03.725Z,4.39
2023-01-28T16:30:30.535Z,4.47
2023-01-28T16:32:57.239Z,4.45
2023-01-28T16:35:42.632Z,3.82
2023-01-28T16:38:19.043Z,3.94
2023-01-28T16:40:47.294Z,4.40
2023-01-28T16:43:15.922Z,4.31
2023-01-28T16:45:43.815Z,4.06
2023-01-28T16:48:10.950Z,4.32
2023-01-28T16:50:40.827Z,4.38
2023-01-28T16:53:30.105Z,4.38
2023-01-28T16:55:56.832Z,4.32
2023-01-28T16:58:26.229Z,4.34
2023-01-28T17:00:53.546Z,4.45
2023-01-28T17:03:20.378Z,4.08
2023-01-28T17:05:47.085Z,4.36
2023-01-28T17:08:13.771Z,4.53
2023-01-28T17:10:40.451Z,4.42
2023-01-28T17:13:07.412Z,4.64
2023-01-28T17:15:35.526Z,3.84
2023-01-28T17:18:02.159Z,4.50
2023-01-28T17:20:28.782Z,4.55
2023-01-28T17:22:55.592Z,4.56
2023-01-28T17:25:23.062Z,4.37
2023-01-28T17:27:50.323Z,4.53
2023-01-28T17:30:19.959Z,4.45
2023-01-28T17:32:46.575Z,4.54
2023-01-28T17:35:14.795Z,4.52
2023-01-28T17:37:41.793Z,4.29
2023-01-28T17:40:10.044Z,4.53
2023-01-28T17:42:36.861Z,4.28
2023-01-28T17:45:04.084Z,4.57
2023-01-28T17:47:31.631Z,4.61
2023-01-28T17:49:58.771Z,4.59
2023-01-28T17:52:26.002Z,2.47
2023-01-28T17:54:53.253Z,4.66
2023-01-28T17:57:20.593Z,4.64
2023-01-28T17:59:47.807Z,4.07
2023-01-28T18:02:15.514Z,4.21
2023-01-28T18:04:43.344Z,4.60
2023-01-28T18:07:14.238Z,4.62
2023-01-28T18:09:43.179Z,4.71
2023-01-28T18:12:13.647Z,4.47
2023-01-28T18:14:41.966Z,4.34
2023-01-28T18:17:09.868Z,4.83
2023-01-28T18:19:36.732Z,4.76
2023-01-28T18:22:03.792Z,4.75
2023-01-28T18:24:32.008Z,4.60
2023-01-28T18:27:01.233Z,4.62
2023-01-28T18:29:30.097Z,4.68
2023-01-28T18:31:59.032Z,4.64
2023-01-28T18:34:29.707Z,4.57
2023-01-28T18:36:58.326Z,4.68
2023-01-28T18:39:34.708Z,4.18
2023-01-28T18:42:03.011Z,4.30
2023-01-28T18:44:31.388Z,4.28
2023-01-28T18:47:00.342Z,4.68
2023-01-28T18:49:28.681Z,4.61
2023-01-28T18:51:56.881Z,4.68
2023-01-28T18:54:26.114Z,4.65
2023-01-28T18:56:52.982Z,4.37
2023-01-28T18:59:19.713Z,4.68
2023-01-28T19:01:49.067Z,4.68
2023-01-28T19:04:16.421Z,4.63
2023-01-28T19:06:44.874Z,4.58
2023-01-28T19:09:14.983Z,4.55
2023-01-28T19:11:44.051Z,4.22
2023-01-28T19:14:16.239Z,4.71
2023-01-28T19:16:45.743Z,4.59
2023-01-28T19:19:13.974Z,4.65
2023-01-28T19:21:42.464Z,4.58
2023-01-28T19:24:13.335Z,4.38
2023-01-28T19:26:45.617Z,4.58
2023-01-28T19:29:15.938Z,4.53
2023-01-28T19:31:45.463Z,4.47
2023-01-28T19:34:14.167Z,4.49
2023-01-28T19:36:44.001Z,3.93
2023-01-28T19:39:12.660Z,4.36
2023-01-28T19:41:39.611Z,4.58
2023-01-28T19:44:07.721Z,4.52
2023-01-28T19:46:37.022Z,4.20
2023-01-28T19:49:07.822Z,4.48
2023-01-28T19:51:37.287Z,4.44
2023-01-28T19:54:05.521Z,4.53
2023-01-28T19:56:37.581Z,4.45
2023-01-28T19:59:04.879Z,4.33
2023-01-28T20:01:33.320Z,4.57
2023-01-28T20:04:02.161Z,4.59
2023-01-28T20:06:30.784Z,4.57
2023-01-28T20:09:02.390Z,4.58
2023-01-28T20:11:31.229Z,4.61
2023-01-28T20:14:01.372Z,4.65
2023-01-28T20:16:33.274Z,4.18
2023-01-28T20:19:07.561Z,4.47
2023-01-28T20:21:38.747Z,4.26
2023-01-28T20:24:08.498Z,4.42
2023-01-28T20:26:39.061Z,4.49
2023-01-28T20:29:10.923Z,4.57
2023-01-28T20:31:41.673Z,4.62
2023-01-28T20:34:15.807Z,4.59
2023-01-28T20:36:44.874Z,4.66
2023-01-28T20:39:14.224Z,4.56
2023-01-28T20:41:42.622Z,4.55
2023-01-28T20:44:10.919Z,4.52
2023-01-28T20:46:40.210Z,3.95
2023-01-28T20:49:07.500Z,4.37
2023-01-28T20:51:36.199Z,4.32
2023-01-28T20:54:04.863Z,4.18
2023-01-28T20:56:32.065Z,4.32
2023-01-28T20:59:03.153Z,4.28
2023-01-28T21:01:35.559Z,4.12
2023-01-28T21:04:05.690Z,4.26
2023-01-28T21:06:34.971Z,3.73
2023-01-28T21:09:03.962Z,4.13
2023-01-28T21:11:31.104Z,3.92
2023-01-28T21:13:58.238Z,4.01
2023-01-28T21:16:25.872Z,4.05
2023-01-28T21:18:52.676Z,4.08
2023-01-28T21:21:20.743Z,4.13
2023-01-28T21:23:47.551Z,4.05
2023-01-28T21:26:17.255Z,4.04
2023-01-28T21:28:44.631Z,4.12
2023-01-28T21:31:17.282Z,3.92
2023-01-28T21:33:47.656Z,3.56
2023-01-28T21:36:16.000Z,3.67
2023-01-28T21:38:43.138Z,3.84
2023-01-28T21:41:10.411Z,3.94
2023-01-28T21:43:37.857Z,4.03
2023-01-28T21:46:05.607Z,4.07
2023-01-28T21:48:32.541Z,3.55
2023-01-28T21:51:27.379Z,2.70
2023-01-28T21:53:54.697Z,3.83
2023-01-28T21:56:22.286Z,3.54
2023-01-28T21:59:07.734Z,3.55
2023-01-28T22:01:34.957Z,3.85
2023-01-28T22:04:01.850Z,3.98
2023-01-28T22:06:28.504Z,4.00
2023-01-28T22:08:55.385Z,3.94
2023-01-28T22:11:22.261Z,3.70
2023-01-28T22:13:49.420Z,3.86
2023-01-28T22:16:16.944Z,3.81
2023-01-28T22:18:43.612Z,3.48
2023-01-28T22:21:11.644Z,3.79
2023-01-28T22:23:38.244Z,3.90
2023-01-28T22:26:04.886Z,3.84
2023-01-28T22:28:31.513Z,3.87
2023-01-28T22:31:10.578Z,3.85
2023-01-28T22:33:37.819Z,3.90
2023-01-28T22:36:16.013Z,3.37
2023-01-28T22:38:44.360Z,4.01
2023-01-28T22:41:19.254Z,3.76
2023-01-28T22:43:46.933Z,3.98
2023-01-28T22:46:14.259Z,3.69
2023-01-28T22:48:41.150Z,3.61
2023-01-28T22:51:11.025Z,4.08
2023-01-28T22:53:37.626Z,4.14
2023-01-28T22:56:04.594Z,3.61
2023-01-28T22:58:32.048Z,3.53
2023-01-28T23:00:58.997Z,3.46
2023-01-28T23:03:25.690Z,3.89
2023-01-28T23:05:52.935Z,3.87
2023-01-28T23:08:19.935Z,3.75
2023-01-28T23:10:50.201Z,3.70
2023-01-28T23:13:19.285Z,3.77
2023-01-28T23:16:09.203Z,3.78
2023-01-28T23:18:54.987Z,3.45
2023-01-28T23:21:43.485Z,3.85
2023-01-28T23:24:19.202Z,3.14
2023-01-28T23:26:48.904Z,3.83
2023-01-28T23:29:15.463Z,3.88
2023-01-28T23:31:46.606Z,3.54
2023-01-28T23:34:16.328Z,3.94
2023-01-28T23:36:43.357Z,3.98
2023-01-28T23:39:10.130Z,3.96
2023-01-28T23:41:36.881Z,4.01
2023-01-28T23:44:05.109Z,3.91
2023-01-28T23:46:39.367Z,4.04
2023-01-28T23:49:08.746Z,4.12
2023-01-28T23:51:35.702Z,3.72
2023-01-28T23:54:02.277Z,4.02
2023-01-28T23:56:28.874Z,3.52
2023-01-28T23:58:56.738Z,4.00
